createdAt,value
2022-12-18T00:04:49.347Z,32.38
2022-12-18T00:09:50.854Z,31.13
2022-12-18T00:14:52.382Z,31.02
2022-12-18T00:19:53.880Z,30.70
2022-12-18T00:24:55.421Z,30.58
2022-12-18T00:29:56.937Z,33.53
2022-12-18T00:34:58.519Z,31.70
2022-12-18T00:40:00.054Z,34.97
2022-12-18T00:45:01.609Z,31.90
2022-12-18T00:50:03.846Z,35.33
2022-12-18T00:55:06.629Z,34.65
2022-12-18T01:00:11.013Z,34.20
2022-12-18T01:05:13.449Z,30.65
2022-12-18T01:10:14.999Z,27.45
2022-12-18T01:15:16.828Z,30.27
2022-12-18T01:20:18.517Z,31.05
2022-12-18T01:25:20.781Z,30.30
2022-12-18T01:30:22.289Z,27.48
2022-12-18T01:35:23.833Z,28.77
2022-12-18T01:40:25.491Z,27.52
2022-12-18T01:45:29.806Z,26.33
2022-12-18T01:50:43.059Z,28.48
2022-12-18T01:55:49.403Z,28.48
2022-12-18T02:00:51.113Z,26.42
2022-12-18T02:06:15.920Z,25.35
2022-12-18T02:11:30.830Z,24.38
2022-12-18T02:17:13.699Z,24.48
2022-12-18T02:22:21.599Z,24.60
2022-12-18T02:27:23.717Z,21.52
2022-12-18T02:32:33.797Z,21.13
2022-12-18T02:37:36.834Z,22.02
2022-12-18T02:42:41.359Z,22.23
2022-12-18T02:47:48.168Z,24.15
2022-12-18T02:53:18.394Z,22.52
2022-12-18T02:58:57.854Z,22.17
2022-12-18T03:04:18.574Z,22.20
2022-12-18T03:09:25.601Z,23.42
2022-12-18T03:14:30.298Z,23.73
2022-12-18T03:19:34.207Z,22.83
2022-12-18T03:24:40.452Z,25.02
2022-12-18T03:29:53.677Z,25.00
2022-12-18T03:35:05.822Z,27.73
2022-12-18T03:40:11.676Z,28.00
2022-12-18T03:45:19.661Z,27.67
2022-12-18T03:50:27.538Z,24.25
2022-12-18T03:55:35.505Z,23.27
2022-12-18T04:00:40.516Z,20.95
2022-12-18T04:05:46.645Z,20.55
2022-12-18T04:10:49.817Z,20.27
2022-12-18T04:15:52.069Z,19.75
2022-12-18T04:20:55.277Z,22.20
2022-12-18T04:25:58.196Z,20.67
2022-12-18T04:31:29.244Z,21.83
2022-12-18T04:36:31.604Z,23.23
2022-12-18T04:41:33.257Z,21.05
2022-12-18T04:46:35.269Z,21.67
2022-12-18T04:51:37.525Z,22.15
2022-12-18T04:56:39.070Z,20.40
2022-12-18T05:01:40.889Z,19.77
2022-12-18T05:06:42.603Z,19.17
2022-12-18T05:11:44.301Z,19.73
2022-12-18T05:16:47.844Z,21.48
2022-12-18T05:21:49.408Z,19.95
2022-12-18T05:26:50.961Z,21.45
2022-12-18T05:31:52.587Z,22.63
2022-12-18T05:36:54.177Z,20.10
2022-12-18T05:41:55.664Z,21.63
2022-12-18T05:46:57.222Z,20.52
2022-12-18T05:51:58.754Z,22.92
2022-12-18T05:57:00.269Z,20.63
2022-12-18T06:02:01.939Z,17.75
2022-12-18T06:07:04.933Z,18.63
2022-12-18T06:12:06.768Z,17.58
2022-12-18T06:17:08.287Z,19.63
2022-12-18T06:22:09.786Z,18.70
2022-12-18T06:27:11.267Z,17.88
2022-12-18T06:32:12.850Z,17.85
2022-12-18T06:37:14.333Z,18.98
2022-12-18T06:42:15.844Z,17.77
2022-12-18T06:47:17.407Z,20.40
2022-12-18T06:52:18.919Z,19.38
2022-12-18T06:57:20.426Z,19.05
2022-12-18T07:02:22.082Z,20.27
2022-12-18T07:07:23.782Z,18.88
2022-12-18T07:12:25.269Z,17.73
2022-12-18T07:17:26.985Z,20.48
2022-12-18T07:22:28.555Z,18.50
2022-12-18T07:27:30.053Z,17.85
2022-12-18T07:32:31.727Z,18.33
2022-12-18T07:37:33.207Z,19.48
2022-12-18T07:42:35.763Z,33.13
2022-12-18T07:47:37.476Z,21.45
2022-12-18T07:52:39.032Z,20.70
2022-12-18T07:58:00.799Z,20.50
2022-12-18T08:03:02.800Z,19.77
2022-12-18T08:08:04.493Z,20.95
2022-12-18T08:13:05.997Z,22.88
2022-12-18T08:18:11.447Z,20.73
2022-12-18T08:23:15.686Z,23.25
2022-12-18T08:28:17.508Z,22.20
2022-12-18T08:33:19.091Z,20.42
2022-12-18T08:38:20.615Z,23.13
2022-12-18T08:43:41.414Z,22.70
2022-12-18T08:48:43.318Z,22.75
2022-12-18T08:53:45.489Z,22.23
2022-12-18T08:58:47.030Z,23.17
2022-12-18T09:03:50.144Z,21.52
2022-12-18T09:08:51.670Z,20.60
2022-12-18T09:13:54.867Z,22.58
2022-12-18T09:19:00.507Z,24.02
2022-12-18T09:24:02.207Z,22.05
2022-12-18T09:29:04.606Z,24.67
2022-12-18T09:34:06.203Z,21.55
2022-12-18T09:39:08.823Z,21.35
2022-12-18T09:44:28.075Z,21.10
2022-12-18T09:49:34.212Z,19.88
2022-12-18T09:54:47.224Z,20.35
2022-12-18T10:00:04.291Z,21.02
2022-12-18T10:05:16.480Z,19.90
2022-12-18T10:10:32.777Z,21.35
2022-12-18T10:15:46.170Z,18.63
2022-12-18T10:20:52.586Z,19.50
2022-12-18T10:25:57.141Z,18.85
2022-12-18T10:30:59.402Z,17.65
2022-12-18T10:36:01.581Z,20.17
2022-12-18T10:41:06.520Z,16.75
2022-12-18T10:46:08.834Z,17.13
2022-12-18T10:51:12.915Z,18.42
2022-12-18T10:56:21.454Z,18.58
2022-12-18T11:01:23.500Z,18.58
2022-12-18T11:06:26.158Z,17.23
2022-12-18T11:11:28.653Z,19.48
2022-12-18T11:16:35.578Z,19.95
2022-12-18T11:21:41.876Z,14.83
2022-12-18T11:26:44.337Z,18.70
2022-12-18T11:31:45.988Z,18.38
2022-12-18T11:36:49.143Z,18.73
2022-12-18T11:42:11.635Z,19.77
2022-12-18T11:47:50.979Z,18.75
2022-12-18T11:52:56.727Z,18.77
2022-12-18T11:58:15.487Z,20.80
2022-12-18T12:03:25.026Z,19.60
2022-12-18T12:08:45.467Z,19.30
2022-12-18T12:14:22.200Z,19.63
2022-12-18T12:19:52.623Z,19.73
2022-12-18T12:25:19.813Z,19.55
2022-12-18T12:30:40.525Z,20.50
2022-12-18T12:36:21.957Z,20.13
2022-12-18T12:41:46.658Z,21.30
2022-12-18T12:46:49.997Z,19.60
2022-12-18T12:52:01.638Z,21.10
2022-12-18T12:57:18.503Z,21.42
2022-12-18T13:02:33.501Z,22.85
2022-12-18T13:07:59.347Z,23.35
2022-12-18T13:13:18.625Z,22.25
2022-12-18T13:18:26.346Z,22.05
2022-12-18T13:23:30.874Z,22.73
2022-12-18T13:28:47.809Z,21.02
2022-12-18T13:39:26.522Z,23.10
2022-12-18T13:44:38.697Z,23.80
2022-12-18T13:49:44.830Z,21.00
2022-12-18T13:54:52.051Z,22.45
2022-12-18T13:59:53.894Z,22.00
2022-12-18T14:04:56.445Z,22.20
2022-12-18T14:10:12.671Z,21.63
2022-12-18T14:15:34.700Z,23.33
2022-12-18T14:20:37.826Z,20.52
2022-12-18T14:25:39.398Z,23.30
2022-12-18T14:30:46.819Z,21.85
2022-12-18T14:36:01.608Z,20.23
2022-12-18T14:41:13.602Z,21.27
2022-12-18T14:46:40.476Z,21.73
2022-12-18T14:51:49.401Z,20.60
2022-12-18T14:56:58.044Z,21.38
2022-12-18T15:02:19.804Z,20.98
2022-12-18T15:07:24.213Z,21.80
2022-12-18T15:12:35.406Z,21.65
2022-12-18T15:17:37.011Z,22.15
2022-12-18T15:22:38.675Z,23.35
2022-12-18T15:27:47.632Z,23.73
2022-12-18T15:32:51.135Z,23.65
2022-12-18T15:37:53.299Z,22.10
2022-12-18T15:43:15.114Z,23.08
2022-12-18T15:48:23.835Z,21.33
2022-12-18T15:53:28.990Z,21.05
2022-12-18T15:58:30.512Z,21.65
2022-12-18T16:03:32.328Z,20.95
2022-12-18T16:08:34.062Z,21.35
2022-12-18T16:13:35.574Z,23.35
2022-12-18T16:18:37.061Z,21.17
2022-12-18T16:23:39.090Z,23.90
2022-12-18T16:28:45.278Z,21.38
2022-12-18T16:33:49.750Z,22.55
2022-12-18T16:38:51.234Z,21.42
2022-12-18T16:43:54.973Z,20.48
2022-12-18T16:48:59.422Z,21.35
2022-12-18T16:54:02.982Z,20.38
2022-12-18T16:59:09.937Z,16.15
2022-12-18T17:04:11.579Z,21.65
2022-12-18T17:09:15.791Z,21.38
2022-12-18T17:14:20.483Z,21.33
2022-12-18T17:19:22.783Z,22.13
2022-12-18T17:24:24.503Z,21.63
2022-12-18T17:29:26.046Z,23.10
2022-12-18T17:34:28.330Z,21.13
2022-12-18T17:39:30.750Z,23.02
2022-12-18T17:44:34.287Z,22.38
2022-12-18T17:49:36.134Z,22.70
2022-12-18T17:54:39.843Z,22.80
2022-12-18T17:59:41.886Z,22.20
2022-12-18T18:04:43.551Z,22.40
2022-12-18T18:09:45.140Z,21.90
2022-12-18T18:14:47.014Z,23.55
2022-12-18T18:19:49.500Z,22.40
2022-12-18T18:24:51.344Z,22.95
2022-12-18T18:29:52.967Z,22.88
2022-12-18T18:34:54.520Z,24.67
2022-12-18T18:39:56.885Z,23.27
2022-12-18T18:44:58.462Z,24.58
2022-12-18T18:50:00.202Z,23.33
2022-12-18T18:55:13.398Z,23.23
2022-12-18T19:00:18.308Z,23.08
2022-12-18T19:05:20.003Z,25.50
2022-12-18T19:10:21.496Z,24.50
2022-12-18T19:15:23.389Z,24.33
2022-12-18T19:20:25.186Z,24.65
2022-12-18T19:25:38.097Z,25.80
2022-12-18T19:30:43.419Z,25.90
2022-12-18T19:35:44.981Z,25.98
2022-12-18T19:40:46.792Z,26.38
2022-12-18T19:45:54.874Z,27.13
2022-12-18T19:50:56.553Z,27.00
2022-12-18T19:55:58.365Z,28.52
2022-12-18T20:00:59.989Z,26.60
2022-12-18T20:06:27.105Z,28.42
2022-12-18T20:11:30.013Z,28.15
2022-12-18T20:16:31.714Z,28.85
2022-12-18T20:21:33.473Z,29.85
2022-12-18T20:26:35.056Z,28.80
2022-12-18T20:31:36.673Z,30.10
2022-12-18T20:36:38.729Z,27.70
2022-12-18T20:41:42.930Z,27.75
2022-12-18T20:46:44.486Z,25.60
2022-12-18T20:51:46.298Z,24.45
2022-12-18T20:56:48.031Z,25.30
2022-12-18T21:01:49.902Z,24.42
2022-12-18T21:07:00.577Z,27.10
2022-12-18T21:12:22.590Z,24.63
2022-12-18T21:17:24.302Z,26.52
2022-12-18T21:22:28.772Z,26.90
2022-12-18T21:27:30.321Z,28.20
2022-12-18T21:32:33.657Z,27.73
2022-12-18T21:37:35.329Z,26.50
2022-12-18T21:42:55.715Z,27.55
2022-12-18T21:47:57.528Z,27.73
2022-12-18T21:52:59.096Z,27.77
2022-12-18T21:58:00.677Z,28.13
2022-12-18T22:03:17.383Z,28.88
2022-12-18T22:08:20.729Z,27.70
2022-12-18T22:13:22.434Z,29.98
2022-12-18T22:18:24.044Z,30.33
2022-12-18T22:23:25.603Z,31.55
2022-12-18T22:28:45.861Z,30.02
2022-12-18T22:33:47.403Z,31.65
2022-12-18T22:38:49.023Z,30.10
2022-12-18T22:43:50.669Z,33.00
2022-12-18T22:48:52.251Z,29.10
2022-12-18T22:53:54.079Z,29.58
2022-12-18T22:58:56.571Z,29.92
2022-12-18T23:04:00.015Z,28.45
2022-12-18T23:09:01.586Z,28.20
2022-12-18T23:14:03.487Z,28.67
2022-12-18T23:19:05.736Z,28.13
2022-12-18T23:24:07.803Z,28.10
2022-12-18T23:29:09.492Z,30.02
2022-12-18T23:34:13.886Z,27.48
2022-12-18T23:39:28.827Z,27.67
2022-12-18T23:44:30.772Z,26.75
2022-12-18T23:49:32.440Z,30.00
2022-12-18T23:54:34.152Z,26.48
2022-12-18T23:59:35.660Z,26.45
